sensor_id;sensor_type;location;lat;lon;timestamp;pressure;altitude;pressure_sealevel;temperature;humidity
50652;BME280;66928;52.086;5.240;2023-03-04T06:26:18;102463.00000000001;;;6.36;75.66
50652;BME280;66928;52.086;5.240;2023-03-04T06:29:30;102464.00000000001;;;6.92;74.17
50652;BME280;66928;52.086;5.240;2023-03-04T06:31:07;102470.0;;;6.76;74.28
50652;BME280;66928;52.086;5.240;2023-03-04T06:32:43;102466.00000000001;;;6.53;74.92
50652;BME280;66928;52.086;5.240;2023-03-04T06:34:20;102467.0;;;6.83;74.28
50652;BME280;66928;52.086;5.240;2023-03-04T06:37:32;102469.0;;;6.92;74.11
50652;BME280;66928;52.086;5.240;2023-03-04T06:39:09;102468.0;;;7.04;73.55
50652;BME280;66928;52.086;5.240;2023-03-04T06:40:45;102479.0;;;6.67;75.03
50652;BME280;66928;52.086;5.240;2023-03-04T06:43:57;102475.0;;;6.77;74.52
50652;BME280;66928;52.086;5.240;2023-03-04T06:45:33;102475.0;;;6.51;75.91
50652;BME280;66928;52.086;5.240;2023-03-04T06:47:09;102472.0;;;6.47;76.74
50652;BME280;66928;52.086;5.240;2023-03-04T06:50:22;102475.0;;;6.64;76.47
50652;BME280;66928;52.086;5.240;2023-03-04T06:51:59;102476.0;;;6.5;77.25
50652;BME280;66928;52.086;5.240;2023-03-04T06:53:35;102478.0;;;6.85;76.06
50652;BME280;66928;52.086;5.240;2023-03-04T06:55:12;102478.0;;;6.22;77.83
50652;BME280;66928;52.086;5.240;2023-03-04T06:58:24;102482.0;;;6.34;77.16
50652;BME280;66928;52.086;5.240;2023-03-04T07:00:01;102483.99999999999;;;6.39;77.44
50652;BME280;66928;52.086;5.240;2023-03-04T07:01:37;102482.0;;;6.27;78.41
50652;BME280;66928;52.086;5.240;2023-03-04T07:04:49;102481.0;;;6.57;77.28
50652;BME280;66928;52.086;5.240;2023-03-04T07:06:26;102484.99999999999;;;6.38;77.92
50652;BME280;66928;52.086;5.240;2023-03-04T07:08:03;102482.0;;;6.71;76.74
50652;BME280;66928;52.086;5.240;2023-03-04T07:11:17;102486.99999999999;;;6.87;76.47
50652;BME280;66928;52.086;5.240;2023-03-04T07:12:55;102489.00000000001;;;6.62;76.83
50652;BME280;66928;52.086;5.240;2023-03-04T07:14:31;102492.0;;;6.52;77.58
50652;BME280;66928;52.086;5.240;2023-03-04T07:16:10;102492.0;;;6.21;79.23
50652;BME280;66928;52.086;5.240;2023-03-04T07:19:24;102495.0;;;6.68;78.86
50652;BME280;66928;52.086;5.240;2023-03-04T07:21:00;102495.0;;;6.35;80.16
50652;BME280;66928;52.086;5.240;2023-03-04T07:22:36;102492.0;;;6.57;79.61
50652;BME280;66928;52.086;5.240;2023-03-04T07:25:50;102499.0;;;6.52;79.22
50652;BME280;66928;52.086;5.240;2023-03-04T07:27:26;102490.00000000001;;;6.49;79.44
50652;BME280;66928;52.086;5.240;2023-03-04T07:29:02;102492.0;;;6.22;79.97
50652;BME280;66928;52.086;5.240;2023-03-04T07:32:16;102496.0;;;6.32;80.36
50652;BME280;66928;52.086;5.240;2023-03-04T07:33:55;102492.0;;;6.41;80.11
50652;BME280;66928;52.086;5.240;2023-03-04T07:35:32;102501.0;;;6.44;79.92
50652;BME280;66928;52.086;5.240;2023-03-04T07:37:08;102494.0;;;6.58;79.33
50652;BME280;66928;52.086;5.240;2023-03-04T07:40:22;102496.0;;;6.75;79.02
50652;BME280;66928;52.086;5.240;2023-03-04T07:41:58;102492.0;;;6.98;78.36
50652;BME280;66928;52.086;5.240;2023-03-04T07:43:35;102499.0;;;6.91;78.19
50652;BME280;66928;52.086;5.240;2023-03-04T07:46:47;102492.0;;;7.09;77.58
50652;BME280;66928;52.086;5.240;2023-03-04T07:48:23;102500.0;;;6.81;77.72
50652;BME280;66928;52.086;5.240;2023-03-04T07:50:00;102502.0;;;6.93;77.91
50652;BME280;66928;52.086;5.240;2023-03-04T07:53:13;102499.0;;;7.19;76.91
50652;BME280;66928;52.086;5.240;2023-03-04T07:54:49;102499.0;;;7.11;76.8
50652;BME280;66928;52.086;5.240;2023-03-04T07:56:26;102505.0;;;7.35;75.74
50652;BME280;66928;52.086;5.240;2023-03-04T07:58:04;102504.0;;;7.0;76.97
50652;BME280;66928;52.086;5.240;2023-03-04T08:01:18;102504.0;;;7.29;76.19
50652;BME280;66928;52.086;5.240;2023-03-04T08:02:55;102505.0;;;7.04;76.86
50652;BME280;66928;52.086;5.240;2023-03-04T08:04:32;102506.0;;;6.82;77.91
50652;BME280;66928;52.086;5.240;2023-03-04T08:07:47;102504.0;;;6.64;78.64
50652;BME280;66928;52.086;5.240;2023-03-04T08:09:23;102508.0;;;6.74;78.36
50652;BME280;66928;52.086;5.240;2023-03-04T08:11:02;102507.0;;;6.75;78.36
50652;BME280;66928;52.086;5.240;2023-03-04T08:12:39;102514.00000000001;;;6.86;78.47
50652;BME280;66928;52.086;5.240;2023-03-04T08:15:54;102511.99999999999;;;7.2;77.58
50652;BME280;66928;52.086;5.240;2023-03-04T08:17:31;102517.0;;;6.85;78.47
50652;BME280;66928;52.086;5.240;2023-03-04T08:19:08;102520.0;;;6.78;78.73
50652;BME280;66928;52.086;5.240;2023-03-04T08:22:21;102520.0;;;6.75;78.91
50652;BME280;66928;52.086;5.240;2023-03-04T08:23:59;102523.0;;;7.06;77.89
50652;BME280;66928;52.086;5.240;2023-03-04T08:25:37;102522.0;;;6.81;79.3
50652;BME280;66928;52.086;5.240;2023-03-04T08:27:14;102525.0;;;6.77;79.3
50652;BME280;66928;52.086;5.240;2023-03-04T08:30:27;102524.0;;;6.71;79.45
50652;BME280;66928;52.086;5.240;2023-03-04T08:32:04;102528.0;;;6.52;80.06
50652;BME280;66928;52.086;5.240;2023-03-04T08:33:40;102521.0;;;6.71;79.53
50652;BME280;66928;52.086;5.240;2023-03-04T08:36:52;102525.0;;;6.59;80.27
50652;BME280;66928;52.086;5.240;2023-03-04T08:38:29;102529.0;;;6.78;79.74
50652;BME280;66928;52.086;5.240;2023-03-04T08:40:06;102523.0;;;7.12;78.89
50652;BME280;66928;52.086;5.240;2023-03-04T08:43:22;102525.0;;;7.24;78.02
50652;BME280;66928;52.086;5.240;2023-03-04T08:44:59;102521.0;;;7.1;78.27
50652;BME280;66928;52.086;5.240;2023-03-04T08:46:36;102527.0;;;7.21;77.78
50652;BME280;66928;52.086;5.240;2023-03-04T08:48:13;102522.0;;;7.08;78.58
50652;BME280;66928;52.086;5.240;2023-03-04T08:51:28;102526.0;;;7.02;78.95
50652;BME280;66928;52.086;5.240;2023-03-04T08:53:04;102525.0;;;7.29;77.53
50652;BME280;66928;52.086;5.240;2023-03-04T08:54:40;102521.0;;;7.33;77.58
50652;BME280;66928;52.086;5.240;2023-03-04T08:57:54;102514.00000000001;;;7.29;77.45
50652;BME280;66928;52.086;5.240;2023-03-04T08:59:30;102515.00000000001;;;7.33;77.3
50652;BME280;66928;52.086;5.240;2023-03-04T09:01:07;102514.00000000001;;;7.23;77.74
50652;BME280;66928;52.086;5.240;2023-03-04T09:04:20;102508.99999999999;;;7.23;78.14
50652;BME280;66928;52.086;5.240;2023-03-04T09:05:56;102511.99999999999;;;7.4;77.66
50652;BME280;66928;52.086;5.240;2023-03-04T09:07:32;102513.00000000001;;;7.27;77.83
50652;BME280;66928;52.086;5.240;2023-03-04T09:09:09;102517.0;;;7.43;77.41
50652;BME280;66928;52.086;5.240;2023-03-04T09:12:22;102508.0;;;7.27;78.33
50652;BME280;66928;52.086;5.240;2023-03-04T09:13:58;102507.0;;;7.56;78.02
50652;BME280;66928;52.086;5.240;2023-03-04T09:15:34;102514.00000000001;;;7.43;80.36
50652;BME280;66928;52.086;5.240;2023-03-04T09:18:47;102508.0;;;7.38;82.15
50652;BME280;66928;52.086;5.240;2023-03-04T09:20:23;102509.99999999999;;;7.38;82.6
50652;BME280;66928;52.086;5.240;2023-03-04T09:21:59;102508.0;;;7.59;81.73
50652;BME280;66928;52.086;5.240;2023-03-04T09:25:14;102507.0;;;7.67;81.44
50652;BME280;66928;52.086;5.240;2023-03-04T09:26:50;102509.99999999999;;;7.61;81.61
50652;BME280;66928;52.086;5.240;2023-03-04T09:28:26;102506.0;;;7.75;81.93
50652;BME280;66928;52.086;5.240;2023-03-04T09:30:03;102514.00000000001;;;7.65;82.5
50652;BME280;66928;52.086;5.240;2023-03-04T09:33:16;102506.0;;;7.7;82.89
50652;BME280;66928;52.086;5.240;2023-03-04T09:34:53;102515.00000000001;;;7.72;83.09
50652;BME280;66928;52.086;5.240;2023-03-04T09:36:29;102511.99999999999;;;7.49;83.95
50652;BME280;66928;52.086;5.240;2023-03-04T09:39:43;102509.99999999999;;;7.34;84.85
50652;BME280;66928;52.086;5.240;2023-03-04T09:41:21;102511.99999999999;;;7.27;84.98
50652;BME280;66928;52.086;5.240;2023-03-04T09:43:01;102509.99999999999;;;7.32;85.95
50652;BME280;66928;52.086;5.240;2023-03-04T09:44:40;102502.0;;;7.38;85.67
50652;BME280;66928;52.086;5.240;2023-03-04T09:48:04;102505.0;;;7.37;85.79
50652;BME280;66928;52.086;5.240;2023-03-04T09:49:44;102499.0;;;7.68;85.5
50652;BME280;66928;52.086;5.240;2023-03-04T09:51:42;102499.0;;;7.85;84.77
50652;BME280;66928;52.086;5.240;2023-03-04T09:53:23;102493.0;;;7.94;85.72
50652;BME280;66928;52.086;5.240;2023-03-04T09:55:16;102494.0;;;7.9;84.24
50652;BME280;66928;52.086;5.240;2023-03-04T09:58:47;102496.0;;;7.78;84.6
50652;BME280;66928;52.086;5.240;2023-03-04T10:00:32;102500.0;;;7.65;83.15
50652;BME280;66928;52.086;5.240;2023-03-04T10:02:17;102494.0;;;7.9;82.41
50652;BME280;66928;52.086;5.240;2023-03-04T10:03:59;102492.0;;;7.88;82.45
50652;BME280;66928;52.086;5.240;2023-03-04T10:05:41;102492.0;;;7.58;83.36
50652;BME280;66928;52.086;5.240;2023-03-04T10:09:14;102509.99999999999;;;7.58;83.7
50652;BME280;66928;52.086;5.240;2023-03-04T10:10:53;102498.0;;;7.46;83.2
50652;BME280;66928;52.086;5.240;2023-03-04T10:12:33;102495.0;;;7.61;83.15
50652;BME280;66928;52.086;5.240;2023-03-04T10:14:29;102492.0;;;7.54;83.99
50652;BME280;66928;52.086;5.240;2023-03-04T10:16:13;102492.0;;;7.74;84.13
50652;BME280;66928;52.086;5.240;2023-03-04T10:19:48;102492.0;;;7.78;83.14
50652;BME280;66928;52.086;5.240;2023-03-04T10:21:30;102483.99999999999;;;7.9;82.13
50652;BME280;66928;52.086;5.240;2023-03-04T10:23:14;102480.0;;;7.97;82.61
50652;BME280;66928;52.086;5.240;2023-03-04T10:24:55;102479.0;;;8.1;81.23
50652;BME280;66928;52.086;5.240;2023-03-04T10:26:32;102475.0;;;8.2;79.48
50652;BME280;66928;52.086;5.240;2023-03-04T10:29:51;102470.0;;;8.31;79.39
50652;BME280;66928;52.086;5.240;2023-03-04T10:31:31;102465.00000000001;;;8.56;78.87
50652;BME280;66928;52.086;5.240;2023-03-04T10:33:12;102472.0;;;8.47;77.22
50652;BME280;66928;52.086;5.240;2023-03-04T10:34:48;102463.00000000001;;;8.68;77.19
50652;BME280;66928;52.086;5.240;2023-03-04T10:38:21;102467.0;;;8.76;75.69
50652;BME280;66928;52.086;5.240;2023-03-04T10:40:00;102478.0;;;8.72;75.81
50652;BME280;66928;52.086;5.240;2023-03-04T10:41:36;102482.0;;;8.31;77.61
50652;BME280;66928;52.086;5.240;2023-03-04T10:43:19;102471.0;;;8.42;78.28
50652;BME280;66928;52.086;5.240;2023-03-04T10:46:37;102476.0;;;8.13;81.02
50652;BME280;66928;52.086;5.240;2023-03-04T10:48:19;102479.0;;;7.73;83.4
50652;BME280;66928;52.086;5.240;2023-03-04T10:49:57;102480.0;;;7.89;83.7
50652;BME280;66928;52.086;5.240;2023-03-04T10:51:41;102484.99999999999;;;8.26;82.99
50652;BME280;66928;52.086;5.240;2023-03-04T10:55:15;102481.0;;;8.39;83.87
50652;BME280;66928;52.086;5.240;2023-03-04T10:56:55;102483.0;;;8.4;83.96
50652;BME280;66928;52.086;5.240;2023-03-04T10:58:32;102479.0;;;8.31;84.26
50652;BME280;66928;52.086;5.240;2023-03-04T11:00:30;102495.0;;;8.13;85.35
50652;BME280;66928;52.086;5.240;2023-03-04T11:02:17;102484.99999999999;;;8.02;85.8
50652;BME280;66928;52.086;5.240;2023-03-04T11:05:32;102478.0;;;7.94;87.6
50652;BME280;66928;52.086;5.240;2023-03-04T11:07:09;102478.0;;;7.95;87.92
50652;BME280;66928;52.086;5.240;2023-03-04T11:08:53;102467.0;;;7.96;88.04
50652;BME280;66928;52.086;5.240;2023-03-04T11:10:38;102464.00000000001;;;7.98;88.64
50652;BME280;66928;52.086;5.240;2023-03-04T11:13:57;102461.99999999999;;;8.08;88.64
50652;BME280;66928;52.086;5.240;2023-03-04T11:15:49;102455.0;;;8.03;89.24
50652;BME280;66928;52.086;5.240;2023-03-04T11:17:28;102450.0;;;8.32;88.77
50652;BME280;66928;52.086;5.240;2023-03-04T11:19:15;102453.0;;;8.57;87.62
50652;BME280;66928;52.086;5.240;2023-03-04T11:20:55;102442.0;;;8.68;86.81
50652;BME280;66928;52.086;5.240;2023-03-04T11:24:13;102440.00000000001;;;8.26;87.0
50652;BME280;66928;52.086;5.240;2023-03-04T11:25:54;102442.0;;;8.19;86.98
50652;BME280;66928;52.086;5.240;2023-03-04T11:27:39;102439.00000000001;;;8.32;85.29
50652;BME280;66928;52.086;5.240;2023-03-04T11:29:21;102446.0;;;8.2;84.89
50652;BME280;66928;52.086;5.240;2023-03-04T11:32:45;102443.0;;;8.48;85.5
50652;BME280;66928;52.086;5.240;2023-03-04T11:34:30;102465.00000000001;;;8.52;86.52
50652;BME280;66928;52.086;5.240;2023-03-04T11:36:22;102466.00000000001;;;8.19;88.82
50652;BME280;66928;52.086;5.240;2023-03-04T11:38:05;102454.0;;;7.88;88.72
50652;BME280;66928;52.086;5.240;2023-03-04T11:39:49;102454.0;;;7.54;89.64
50652;BME280;66928;52.086;5.240;2023-03-04T11:43:11;102457.0;;;7.43;91.36
50652;BME280;66928;52.086;5.240;2023-03-04T11:44:51;102452.0;;;7.36;92.05
50652;BME280;66928;52.086;5.240;2023-03-04T11:46:39;102445.0;;;7.44;92.58
50652;BME280;66928;52.086;5.240;2023-03-04T11:48:39;102454.0;;;7.24;93.25
50652;BME280;66928;52.086;5.240;2023-03-04T11:50:27;102450.0;;;7.03;94.08
50652;BME280;66928;52.086;5.240;2023-03-04T11:54:05;102456.0;;;7.24;93.34
50652;BME280;66928;52.086;5.240;2023-03-04T11:56:00;102448.0;;;7.19;93.96
50652;BME280;66928;52.086;5.240;2023-03-04T11:57:54;102436.99999999999;;;7.5;93.69
50652;BME280;66928;52.086;5.240;2023-03-04T11:59:44;102433.0;;;7.63;92.81
50652;BME280;66928;52.086;5.240;2023-03-04T12:01:35;102428.0;;;7.85;89.84
50652;BME280;66928;52.086;5.240;2023-03-04T12:03:42;102429.0;;;8.0;90.25
50652;BME280;66928;52.086;5.240;2023-03-04T12:05:26;102425.0;;;8.07;89.54
50652;BME280;66928;52.086;5.240;2023-03-04T12:07:11;102417.0;;;7.98;89.23
50652;BME280;66928;52.086;5.240;2023-03-04T12:10:56;102420.0;;;8.1;89.97
50652;BME280;66928;52.086;5.240;2023-03-04T12:12:56;102407.0;;;8.39;87.78
50652;BME280;66928;52.086;5.240;2023-03-04T12:14:43;102407.0;;;8.24;87.91
50652;BME280;66928;52.086;5.240;2023-03-04T12:16:37;102408.99999999999;;;8.25;88.12
50652;BME280;66928;52.086;5.240;2023-03-04T12:18:29;102405.0;;;8.45;87.87
50652;BME280;66928;52.086;5.240;2023-03-04T12:20:24;102408.0;;;8.45;87.79
50652;BME280;66928;52.086;5.240;2023-03-04T12:22:42;102406.0;;;8.31;87.12
50652;BME280;66928;52.086;5.240;2023-03-04T12:24:30;102419.0;;;8.33;87.77
50652;BME280;66928;52.086;5.240;2023-03-04T12:26:24;102414.00000000001;;;8.05;84.12
50652;BME280;66928;52.086;5.240;2023-03-04T12:28:19;102414.00000000001;;;7.96;84.28
50652;BME280;66928;52.086;5.240;2023-03-04T12:30:28;102421.0;;;7.86;85.46
50652;BME280;66928;52.086;5.240;2023-03-04T12:32:16;102425.0;;;7.67;85.54
50652;BME280;66928;52.086;5.240;2023-03-04T12:36:23;102424.0;;;7.41;87.75
50652;BME280;66928;52.086;5.240;2023-03-04T12:40:20;102425.0;;;7.5;86.39
50652;BME280;66928;52.086;5.240;2023-03-04T12:42:07;102417.0;;;7.33;87.55
50652;BME280;66928;52.086;5.240;2023-03-04T12:44:03;102417.0;;;7.19;87.09
50652;BME280;66928;52.086;5.240;2023-03-04T12:45:50;102408.0;;;7.32;86.78
50652;BME280;66928;52.086;5.240;2023-03-04T12:47:38;102414.00000000001;;;7.23;86.73
50652;BME280;66928;52.086;5.240;2023-03-04T12:49:32;102406.0;;;7.28;84.96
50652;BME280;66928;52.086;5.240;2023-03-04T12:51:24;102402.0;;;7.4;85.52
50652;BME280;66928;52.086;5.240;2023-03-04T12:53:10;102399.0;;;7.65;83.54
50652;BME280;66928;52.086;5.240;2023-03-04T12:56:39;102401.0;;;7.57;83.65
50652;BME280;66928;52.086;5.240;2023-03-04T12:58:20;102396.0;;;7.68;83.93
50652;BME280;66928;52.086;5.240;2023-03-04T13:00:08;102396.0;;;7.72;83.58
50652;BME280;66928;52.086;5.240;2023-03-04T13:01:55;102389.0;;;7.71;83.6
50652;BME280;66928;52.086;5.240;2023-03-04T13:03:42;102393.0;;;7.83;82.77
50652;BME280;66928;52.086;5.240;2023-03-04T13:07:38;102385.0;;;7.9;82.4
50652;BME280;66928;52.086;5.240;2023-03-04T13:09:24;102375.0;;;8.02;82.41
50652;BME280;66928;52.086;5.240;2023-03-04T13:11:38;102380.0;;;8.18;81.36
50652;BME280;66928;52.086;5.240;2023-03-04T13:13:41;102371.0;;;8.16;80.83
50652;BME280;66928;52.086;5.240;2023-03-04T13:15:29;102376.0;;;8.06;80.47
50652;BME280;66928;52.086;5.240;2023-03-04T13:17:45;102371.0;;;8.23;80.58
50652;BME280;66928;52.086;5.240;2023-03-04T13:20:16;102364.0;;;8.32;80.5
50652;BME280;66928;52.086;5.240;2023-03-04T13:21:55;102358.0;;;8.6;79.84
50652;BME280;66928;52.086;5.240;2023-03-04T13:23:31;102363.0;;;8.73;78.42
50652;BME280;66928;52.086;5.240;2023-03-04T13:25:40;102361.0;;;8.55;75.14
50652;BME280;66928;52.086;5.240;2023-03-04T13:27:50;102366.0;;;8.39;74.75
50652;BME280;66928;52.086;5.240;2023-03-04T13:29:40;102368.0;;;8.34;75.78
50652;BME280;66928;52.086;5.240;2023-03-04T13:31:20;102393.0;;;7.9;76.33
50652;BME280;66928;52.086;5.240;2023-03-04T13:33:48;102372.0;;;7.65;77.08
50652;BME280;66928;52.086;5.240;2023-03-04T13:35:58;102369.0;;;7.76;77.48
50652;BME280;66928;52.086;5.240;2023-03-04T13:37:37;102389.0;;;7.72;77.02
50652;BME280;66928;52.086;5.240;2023-03-04T13:40:23;102384.0;;;7.72;76.23
50652;BME280;66928;52.086;5.240;2023-03-04T13:42:38;102378.0;;;7.78;75.78
50652;BME280;66928;52.086;5.240;2023-03-04T13:46:40;102365.0;;;7.66;75.44
50652;BME280;66928;52.086;5.240;2023-03-04T13:48:29;102367.0;;;7.61;74.74
50652;BME280;66928;52.086;5.240;2023-03-04T13:50:43;102358.0;;;7.72;74.34
50652;BME280;66928;52.086;5.240;2023-03-04T13:52:38;102358.0;;;7.9;73.52
50652;BME280;66928;52.086;5.240;2023-03-04T13:54:29;102353.0;;;7.86;74.16
50652;BME280;66928;52.086;5.240;2023-03-04T13:56:11;102359.0;;;7.87;74.28
50652;BME280;66928;52.086;5.240;2023-03-04T13:58:15;102357.0;;;8.07;73.97
50652;BME280;66928;52.086;5.240;2023-03-04T14:00:02;102359.0;;;7.98;73.91
50652;BME280;66928;52.086;5.240;2023-03-04T14:03:38;102355.0;;;7.99;73.45
50652;BME280;66928;52.086;5.240;2023-03-04T14:05:14;102350.0;;;8.07;74.13
50652;BME280;66928;52.086;5.240;2023-03-04T14:06:51;102368.0;;;8.07;72.64
50652;BME280;66928;52.086;5.240;2023-03-04T14:08:29;102359.0;;;7.74;74.22
50652;BME280;66928;52.086;5.240;2023-03-04T14:11:57;102350.0;;;7.61;74.89
50652;BME280;66928;52.086;5.240;2023-03-04T14:13:34;102345.0;;;7.74;74.72
50652;BME280;66928;52.086;5.240;2023-03-04T14:15:21;102352.0;;;7.55;75.16
50652;BME280;66928;52.086;5.240;2023-03-04T14:17:00;102359.0;;;7.47;74.22
50652;BME280;66928;52.086;5.240;2023-03-04T14:20:32;102353.0;;;7.36;73.81
50652;BME280;66928;52.086;5.240;2023-03-04T14:22:19;102351.0;;;7.61;73.13
50652;BME280;66928;52.086;5.240;2023-03-04T14:24:01;102356.0;;;7.55;72.69
50652;BME280;66928;52.086;5.240;2023-03-04T14:25:39;102353.0;;;7.65;72.56
50652;BME280;66928;52.086;5.240;2023-03-04T14:27:16;102352.0;;;7.51;72.88
50652;BME280;66928;52.086;5.240;2023-03-04T14:30:29;102346.0;;;7.42;72.8
50652;BME280;66928;52.086;5.240;2023-03-04T14:32:06;102353.0;;;7.7;71.72
50652;BME280;66928;52.086;5.240;2023-03-04T14:33:45;102338.0;;;7.73;70.8
50652;BME280;66928;52.086;5.240;2023-03-04T14:35:23;102338.0;;;7.69;71.7
50652;BME280;66928;52.086;5.240;2023-03-04T14:38:38;102341.0;;;7.88;70.42
50652;BME280;66928;52.086;5.240;2023-03-04T14:40:19;102340.0;;;7.97;69.89
50652;BME280;66928;52.086;5.240;2023-03-04T14:42:00;102337.0;;;7.81;70.62
50652;BME280;66928;52.086;5.240;2023-03-04T14:45:29;102335.0;;;7.99;68.89
50652;BME280;66928;52.086;5.240;2023-03-04T14:47:11;102334.0;;;7.76;69.08
50652;BME280;66928;52.086;5.240;2023-03-04T14:48:52;102323.0;;;7.91;68.06
50652;BME280;66928;52.086;5.240;2023-03-04T14:50:29;102326.0;;;7.83;69.27
50652;BME280;66928;52.086;5.240;2023-03-04T14:52:26;102331.0;;;8.05;68.13
50652;BME280;66928;52.086;5.240;2023-03-04T14:56:08;102322.0;;;7.87;68.8
50652;BME280;66928;52.086;5.240;2023-03-04T14:57:46;102325.0;;;7.94;68.22
50652;BME280;66928;52.086;5.240;2023-03-04T14:59:31;102315.0;;;8.0;68.36
50652;BME280;66928;52.086;5.240;2023-03-04T15:01:14;102326.0;;;7.94;69.13
50652;BME280;66928;52.086;5.240;2023-03-04T15:02:53;102330.0;;;7.72;70.23
50652;BME280;66928;52.086;5.240;2023-03-04T15:06:15;102322.0;;;7.7;71.03
50652;BME280;66928;52.086;5.240;2023-03-04T15:07:55;102316.0;;;7.67;71.05
50652;BME280;66928;52.086;5.240;2023-03-04T15:09:33;102322.0;;;7.29;72.14
50652;BME280;66928;52.086;5.240;2023-03-04T15:11:19;102327.0;;;7.37;72.72
50652;BME280;66928;52.086;5.240;2023-03-04T15:14:41;102320.0;;;7.38;73.61
50652;BME280;66928;52.086;5.240;2023-03-04T15:16:20;102320.0;;;7.46;73.66
50652;BME280;66928;52.086;5.240;2023-03-04T15:17:58;102313.0;;;7.52;73.92
50652;BME280;66928;52.086;5.240;2023-03-04T15:19:36;102320.0;;;7.37;74.58
50652;BME280;66928;52.086;5.240;2023-03-04T15:23:07;102317.0;;;7.22;75.44
50652;BME280;66928;52.086;5.240;2023-03-04T15:24:43;102317.0;;;7.3;75.66
50652;BME280;66928;52.086;5.240;2023-03-04T15:26:19;102321.0;;;7.44;75.31
50652;BME280;66928;52.086;5.240;2023-03-04T15:27:56;102319.0;;;7.31;75.67
50652;BME280;66928;52.086;5.240;2023-03-04T15:31:15;102317.0;;;7.25;75.69
50652;BME280;66928;52.086;5.240;2023-03-04T15:32:52;102318.0;;;7.46;74.36
50652;BME280;66928;52.086;5.240;2023-03-04T15:34:29;102313.0;;;7.2;74.86
50652;BME280;66928;52.086;5.240;2023-03-04T15:36:09;102317.0;;;7.3;74.36
50652;BME280;66928;52.086;5.240;2023-03-04T15:39:25;102316.0;;;7.41;73.42
50652;BME280;66928;52.086;5.240;2023-03-04T15:41:01;102305.0;;;7.34;73.24
50652;BME280;66928;52.086;5.240;2023-03-04T15:42:38;102309.0;;;7.29;73.02
50652;BME280;66928;52.086;5.240;2023-03-04T15:45:51;102306.0;;;7.32;72.8
50652;BME280;66928;52.086;5.240;2023-03-04T15:47:28;102305.0;;;7.33;72.61
50652;BME280;66928;52.086;5.240;2023-03-04T15:49:04;102305.0;;;7.2;73.05
50652;BME280;66928;52.086;5.240;2023-03-04T15:50:42;102303.0;;;7.24;72.97
50652;BME280;66928;52.086;5.240;2023-03-04T15:53:58;102294.0;;;7.38;72.36
50652;BME280;66928;52.086;5.240;2023-03-04T15:55:35;102294.0;;;7.43;72.33
50652;BME280;66928;52.086;5.240;2023-03-04T15:57:17;102292.0;;;7.41;72.94
50652;BME280;66928;52.086;5.240;2023-03-04T16:00:37;102293.0;;;7.33;73.0
50652;BME280;66928;52.086;5.240;2023-03-04T16:02:18;102293.0;;;7.33;72.13
50652;BME280;66928;52.086;5.240;2023-03-04T16:03:55;102292.0;;;7.37;72.84
50652;BME280;66928;52.086;5.240;2023-03-04T16:05:34;102292.0;;;7.5;71.87
50652;BME280;66928;52.086;5.240;2023-03-04T16:08:53;102292.0;;;7.65;71.38
50652;BME280;66928;52.086;5.240;2023-03-04T16:10:29;102295.0;;;7.61;71.53
50652;BME280;66928;52.086;5.240;2023-03-04T16:12:09;102293.0;;;7.56;71.05
50652;BME280;66928;52.086;5.240;2023-03-04T16:13:46;102285.0;;;7.54;69.99
50652;BME280;66928;52.086;5.240;2023-03-04T16:17:03;102291.0;;;7.43;70.05
50652;BME280;66928;52.086;5.240;2023-03-04T16:18:40;102286.0;;;7.45;69.8
50652;BME280;66928;52.086;5.240;2023-03-04T16:20:18;102292.0;;;7.18;69.69
50652;BME280;66928;52.086;5.240;2023-03-04T16:23:37;102284.0;;;7.3;69.61
50652;BME280;66928;52.086;5.240;2023-03-04T16:25:16;102274.0;;;7.48;68.83
50652;BME280;66928;52.086;5.240;2023-03-04T16:26:53;102283.0;;;7.37;68.84
50652;BME280;66928;52.086;5.240;2023-03-04T16:28:30;102284.0;;;7.53;68.3
50652;BME280;66928;52.086;5.240;2023-03-04T16:31:48;102280.0;;;7.52;68.53
50652;BME280;66928;52.086;5.240;2023-03-04T16:33:24;102277.0;;;7.57;68.52
50652;BME280;66928;52.086;5.240;2023-03-04T16:35:00;102278.0;;;7.56;69.11
50652;BME280;66928;52.086;5.240;2023-03-04T16:38:21;102276.0;;;7.74;68.41
50652;BME280;66928;52.086;5.240;2023-03-04T16:39:58;102273.0;;;7.68;68.97
50652;BME280;66928;52.086;5.240;2023-03-04T16:41:35;102274.0;;;7.85;67.78
50652;BME280;66928;52.086;5.240;2023-03-04T16:43:11;102280.0;;;7.63;68.2
50652;BME280;66928;52.086;5.240;2023-03-04T16:46:24;102272.0;;;7.39;68.55
50652;BME280;66928;52.086;5.240;2023-03-04T16:48:00;102281.0;;;7.61;66.6
50652;BME280;66928;52.086;5.240;2023-03-04T16:49:37;102271.0;;;7.58;66.39
50652;BME280;66928;52.086;5.240;2023-03-04T16:52:55;102273.0;;;7.47;65.84
50652;BME280;66928;52.086;5.240;2023-03-04T16:54:33;102273.0;;;7.62;65.05
50652;BME280;66928;52.086;5.240;2023-03-04T16:56:12;102276.0;;;7.64;64.44
50652;BME280;66928;52.086;5.240;2023-03-04T16:57:50;102272.0;;;7.69;64.19
50652;BME280;66928;52.086;5.240;2023-03-04T17:01:04;102273.0;;;7.5;64.3
50652;BME280;66928;52.086;5.240;2023-03-04T17:02:41;102270.0;;;7.63;62.62
50652;BME280;66928;52.086;5.240;2023-03-04T17:04:17;102271.0;;;7.51;62.36
50652;BME280;66928;52.086;5.240;2023-03-04T17:07:29;102273.0;;;7.32;61.97
50652;BME280;66928;52.086;5.240;2023-03-04T17:09:07;102276.0;;;7.43;61.56
50652;BME280;66928;52.086;5.240;2023-03-04T17:10:42;102269.0;;;7.33;62.31
50652;BME280;66928;52.086;5.240;2023-03-04T17:12:18;102270.0;;;7.52;62.04
50652;BME280;66928;52.086;5.240;2023-03-04T17:15:31;102273.0;;;7.52;61.95
50652;BME280;66928;52.086;5.240;2023-03-04T17:17:07;102271.0;;;7.51;62.24
50652;BME280;66928;52.086;5.240;2023-03-04T17:18:44;102271.0;;;7.53;62.14
50652;BME280;66928;52.086;5.240;2023-03-04T17:21:57;102273.0;;;7.47;62.32
50652;BME280;66928;52.086;5.240;2023-03-04T17:23:35;102271.0;;;7.62;62.02
50652;BME280;66928;52.086;5.240;2023-03-04T17:25:11;102272.0;;;7.66;61.82
50652;BME280;66928;52.086;5.240;2023-03-04T17:28:26;102282.0;;;7.54;62.97
50652;BME280;66928;52.086;5.240;2023-03-04T17:30:04;102289.0;;;7.25;63.65
50652;BME280;66928;52.086;5.240;2023-03-04T17:31:40;102275.0;;;7.34;63.53
50652;BME280;66928;52.086;5.240;2023-03-04T17:33:17;102283.0;;;7.14;64.27